Terminal Aerodrome Forecast
Issued by NWS Upton, NY

Home | Current Version | Previous Version | Text Only | Print | Product List | Glossary On
Versions: 1 2 3 4 5 6 7 8 9 10 11 12 13 14 15 16 17 18 19 20 21 22 23 24 25 26 27 28 29 30 31 32 33 34 35 36 37
000
FTUS41 KOKX 010325 AAB
TAFJFK
TAF AMD
KJFK 010325Z 0103/0206 04013G19KT 5SM -RA BR BKN010 OVC016
     FM011300 04011KT 3SM -SHRA OVC012
     FM011800 05010KT 4SM -SHRA BR OVC007
     FM020100 05012KT 3SM BR OVC007=

USA.gov is the U.S. government's official web portal to all federal, state and local government web resources and services.